Time;durP1;ratioP1;P1;durP2;ratioP2;P2;SDS_P1;SDS_P2;PMS_P1;PMS_P2;Temp;Humidity;BMP_temperature;BMP_pressure;BME280_temperature;BME280_humidity;BME280_pressure;Samples;Min_cycle;Max_cycle;Signal;HPM_P1;HPM_P2
2023/12/29 00:00:08;;;;;;;6.10;3.45;;;8.30;60.60;;;;;;4854514;28;115164;-82
2023/12/29 00:02:37;;;;;;;6.28;3.50;;;8.30;60.50;;;;;;4888131;28;114690;-82
2023/12/29 00:05:05;;;;;;;5.45;3.25;;;8.30;60.50;;;;;;4855706;28;114379;-82
2023/12/29 00:07:33;;;;;;;6.30;3.25;;;8.30;60.40;;;;;;4855930;28;114494;-82
2023/12/29 00:10:00;;;;;;;6.00;3.70;;;8.30;60.30;;;;;;4854299;28;115164;-81
2023/12/29 00:12:28;;;;;;;6.00;3.15;;;8.30;60.20;;;;;;4870426;28;116425;-82
2023/12/29 00:14:55;;;;;;;6.28;3.55;;;8.30;60.00;;;;;;4887618;28;114505;-82
2023/12/29 00:17:22;;;;;;;7.28;3.67;;;8.40;59.90;;;;;;4888220;28;114341;-82
2023/12/29 00:19:49;;;;;;;6.72;3.85;;;8.40;59.80;;;;;;4854754;28;115010;-82
2023/12/29 00:22:17;;;;;;;6.00;3.88;;;8.40;59.80;;;;;;4886552;28;114736;-82
2023/12/29 00:24:45;;;;;;;6.20;3.83;;;8.40;59.70;;;;;;4888004;28;114306;-82
2023/12/29 00:27:13;;;;;;;5.60;3.40;;;8.40;59.60;;;;;;4855574;28;114534;-82
2023/12/29 00:29:41;;;;;;;5.95;3.47;;;8.50;59.50;;;;;;4870485;28;115249;-82
2023/12/29 00:32:08;;;;;;;6.75;3.72;;;8.40;59.40;;;;;;4874474;28;114782;-82
2023/12/29 00:34:37;;;;;;;5.28;3.10;;;8.50;59.30;;;;;;4857863;28;114318;-82
2023/12/29 00:37:06;;;;;;;5.40;3.30;;;8.50;59.30;;;;;;4854473;28;114509;-82
2023/12/29 00:39:38;;;;;;;5.47;3.17;;;8.50;59.40;;;;;;4870386;28;115856;-81
2023/12/29 00:42:06;;;;;;;5.15;3.28;;;8.50;59.50;;;;;;4870357;28;114589;-82
2023/12/29 00:44:34;;;;;;;5.63;3.15;;;8.50;59.60;;;;;;4887915;28;114199;-82
2023/12/29 00:47:02;;;;;;;5.50;3.60;;;8.50;59.60;;;;;;4869819;28;114435;-82
2023/12/29 00:49:30;;;;;;;7.32;4.38;;;8.50;59.70;;;;;;4838849;28;115103;-82
2023/12/29 00:51:57;;;;;;;9.02;5.18;;;8.60;59.70;;;;;;4887359;28;114600;-82
2023/12/29 00:54:25;;;;;;;10.88;5.07;;;8.50;59.70;;;;;;4887477;28;114461;-82
2023/12/29 00:56:56;;;;;;;9.90;5.68;;;8.50;59.80;;;;;;4887725;28;114435;-82
2023/12/29 00:59:24;;;;;;;10.90;5.50;;;8.50;59.90;;;;;;4886089;28;115336;-82
2023/12/29 01:01:51;;;;;;;9.15;5.13;;;8.50;60.00;;;;;;4886068;28;114632;-82
2023/12/29 01:04:18;;;;;;;6.65;4.30;;;8.50;60.20;;;;;;4887333;28;114549;-82
2023/12/29 01:06:46;;;;;;;6.95;4.03;;;8.50;60.40;;;;;;4855108;28;114271;-82
2023/12/29 01:09:15;;;;;;;8.18;4.38;;;8.50;60.70;;;;;;4869018;28;115527;-82
2023/12/29 01:11:42;;;;;;;9.55;5.53;;;8.40;60.90;;;;;;4838618;28;114609;-82
2023/12/29 01:14:09;;;;;;;9.30;5.78;;;8.50;60.90;;;;;;4870141;28;114576;-82
2023/12/29 01:16:38;;;;;;;10.20;6.28;;;8.40;61.00;;;;;;4870619;28;114409;-82
2023/12/29 01:19:08;;;;;;;15.10;6.70;;;8.40;60.90;;;;;;4854042;28;115311;-81
2023/12/29 01:21:38;;;;;;;8.80;6.28;;;8.30;60.90;;;;;;4869521;28;114771;-82
2023/12/29 01:24:07;;;;;;;12.20;6.97;;;8.30;61.10;;;;;;4853941;28;114306;-81
2023/12/29 01:26:38;;;;;;;11.25;6.57;;;8.30;61.10;;;;;;4869842;28;114477;-82
2023/12/29 01:29:08;;;;;;;11.43;6.88;;;8.30;61.20;;;;;;4886211;28;115127;-82
2023/12/29 01:31:36;;;;;;;10.05;6.55;;;8.20;61.30;;;;;;4868826;28;115918;-82
2023/12/29 01:34:06;;;;;;;12.50;7.57;;;8.20;61.40;;;;;;4854356;28;114600;-82
2023/12/29 01:36:36;;;;;;;12.18;6.57;;;8.10;61.40;;;;;;4870990;28;114347;-82
2023/12/29 01:39:04;;;;;;;12.02;7.38;;;8.00;61.60;;;;;;4890912;28;115500;-81
2023/12/29 01:41:32;;;;;;;10.52;6.35;;;8.00;61.60;;;;;;4869902;28;114679;-81
2023/12/29 01:43:59;;;;;;;9.18;6.32;;;7.90;61.70;;;;;;4869623;28;114357;-81
2023/12/29 01:46:31;;;;;;;10.65;6.50;;;7.80;61.70;;;;;;4869831;28;114319;-81
2023/12/29 01:48:58;;;;;;;9.90;5.95;;;7.80;61.80;;;;;;4853280;28;115154;-82
2023/12/29 01:51:27;;;;;;;10.25;5.82;;;7.80;61.90;;;;;;4853724;28;115290;-82
2023/12/29 01:53:55;;;;;;;9.75;6.10;;;7.70;61.90;;;;;;4854581;28;114277;-82
2023/12/29 01:56:25;;;;;;;11.02;6.60;;;7.70;61.90;;;;;;4854134;28;114478;-81
2023/12/29 01:58:52;;;;;;;12.02;5.90;;;7.70;62.00;;;;;;4852224;28;115684;-81
2023/12/29 02:01:20;;;;;;;9.55;5.97;;;7.70;62.00;;;;;;4853603;28;114649;-82
2023/12/29 02:03:47;;;;;;;10.30;6.72;;;7.60;61.90;;;;;;4822752;28;114463;-83
2023/12/29 02:06:16;;;;;;;12.02;7.20;;;7.60;62.10;;;;;;4886965;28;114274;-82
2023/12/29 02:08:43;;;;;;;9.95;6.07;;;7.60;62.20;;;;;;4853111;28;115801;-82
2023/12/29 02:11:11;;;;;;;10.82;6.35;;;7.60;62.20;;;;;;4837396;28;115125;-82
2023/12/29 02:13:40;;;;;;;10.45;6.47;;;7.60;62.20;;;;;;4869540;28;114321;-82
2023/12/29 02:16:37;;;;;;;9.63;6.57;;;7.50;62.30;;;;;;4855459;28;114340;-82
2023/12/29 02:19:17;;;;;;;10.70;6.28;;;7.60;62.30;;;;;;4830601;28;115333;-83
2023/12/29 02:21:44;;;;;;;12.52;6.95;;;7.50;62.30;;;;;;4868734;28;114959;-81
2023/12/29 02:24:12;;;;;;;13.10;7.07;;;7.30;62.30;;;;;;4868458;28;114262;-81
2023/12/29 02:26:39;;;;;;;12.65;6.68;;;7.30;62.30;;;;;;4868970;28;114411;-81
2023/12/29 02:29:07;;;;;;;12.18;6.43;;;7.20;62.30;;;;;;4822199;28;115202;-81
2023/12/29 02:31:34;;;;;;;14.85;7.60;;;7.20;62.30;;;;;;4853599;28;114875;-81
2023/12/29 02:34:02;;;;;;;13.30;7.45;;;7.20;62.40;;;;;;4853646;28;114251;-82
2023/12/29 02:36:30;;;;;;;13.95;7.53;;;7.20;62.40;;;;;;4869152;28;114294;-81
2023/12/29 02:38:57;;;;;;;13.20;6.35;;;7.20;62.30;;;;;;4852609;28;115067;-82
2023/12/29 02:41:26;;;;;;;13.07;7.20;;;7.20;62.20;;;;;;4822601;28;115196;-82
2023/12/29 02:43:53;;;;;;;11.60;6.68;;;7.20;62.20;;;;;;4869099;28;114805;-82
2023/12/29 02:46:21;;;;;;;12.30;7.30;;;7.20;62.20;;;;;;4853768;28;114724;-82
2023/12/29 02:48:48;;;;;;;12.48;7.05;;;7.20;62.20;;;;;;4834029;28;115124;-82
2023/12/29 02:51:16;;;;;;;12.27;7.40;;;7.30;62.20;;;;;;4866359;28;114983;-82
2023/12/29 02:53:43;;;;;;;13.88;7.22;;;7.20;62.10;;;;;;4849886;28;114380;-82
2023/12/29 02:56:10;;;;;;;11.77;6.90;;;7.30;62.00;;;;;;4834941;28;114309;-82
2023/12/29 02:58:38;;;;;;;12.77;6.07;;;7.30;62.00;;;;;;4865925;28;115213;-82
2023/12/29 03:01:05;;;;;;;13.82;6.63;;;7.30;61.90;;;;;;4833729;28;115135;-81
2023/12/29 03:03:34;;;;;;;13.02;7.20;;;7.30;61.80;;;;;;4819133;28;114389;-82
2023/12/29 03:06:02;;;;;;;16.23;7.15;;;7.20;61.70;;;;;;4849707;28;114295;-82
2023/12/29 03:08:29;;;;;;;14.50;7.72;;;7.20;61.70;;;;;;4865951;28;115661;-82
2023/12/29 03:10:57;;;;;;;11.57;7.10;;;7.20;61.70;;;;;;4867392;28;114546;-81
2023/12/29 03:13:24;;;;;;;13.68;7.78;;;7.20;61.50;;;;;;4853148;28;114311;-81
2023/12/29 03:15:51;;;;;;;11.88;7.10;;;7.20;61.50;;;;;;4869918;28;114436;-81
2023/12/29 03:18:22;;;;;;;12.75;8.00;;;7.20;61.30;;;;;;4836803;28;115927;-81
2023/12/29 03:20:49;;;;;;;13.30;7.30;;;7.20;61.00;;;;;;4852778;28;114569;-81
2023/12/29 03:23:16;;;;;;;11.40;7.32;;;7.10;61.20;;;;;;4853070;28;114520;-81
2023/12/29 03:25:44;;;;;;;12.25;7.57;;;7.10;61.20;;;;;;4844533;29;114822;-81
2023/12/29 03:28:11;;;;;;;12.52;6.85;;;7.20;61.20;;;;;;4849560;29;114996;-81
2023/12/29 03:30:39;;;;;;;11.13;7.22;;;7.20;61.10;;;;;;4817545;29;115782;-81
2023/12/29 03:33:06;;;;;;;12.27;7.95;;;7.20;61.10;;;;;;4849929;29;114380;-81
2023/12/29 03:35:36;;;;;;;10.07;6.45;;;7.20;61.20;;;;;;4850894;29;114291;-81
2023/12/29 03:38:04;;;;;;;12.48;7.60;;;7.20;61.20;;;;;;4833351;29;115449;-81
2023/12/29 03:40:31;;;;;;;12.15;7.13;;;7.20;61.30;;;;;;4802735;29;114687;-81
2023/12/29 03:42:58;;;;;;;12.45;8.38;;;7.20;61.10;;;;;;4835445;29;114970;-81
2023/12/29 03:45:26;;;;;;;11.73;7.75;;;7.20;60.90;;;;;;4852427;29;114516;-81
2023/12/29 03:47:53;;;;;;;13.10;8.68;;;7.20;60.90;;;;;;4850198;29;115717;-81
2023/12/29 03:50:20;;;;;;;13.95;8.07;;;7.20;60.80;;;;;;4842356;29;114647;-81
2023/12/29 03:52:49;;;;;;;16.70;9.27;;;7.20;60.90;;;;;;4833839;29;114553;-81
2023/12/29 03:55:16;;;;;;;14.02;8.60;;;7.20;60.80;;;;;;4833632;29;114434;-81
2023/12/29 03:57:43;;;;;;;10.20;7.25;;;7.30;60.70;;;;;;4817682;29;115072;-82
2023/12/29 04:00:14;;;;;;;11.30;7.68;;;7.30;60.60;;;;;;4833848;29;114702;-81
2023/12/29 04:02:46;;;;;;;12.57;7.97;;;7.30;60.60;;;;;;4822383;29;114691;-82
2023/12/29 04:05:14;;;;;;;13.18;8.48;;;7.30;60.50;;;;;;4833516;29;115697;-81
2023/12/29 04:07:41;;;;;;;11.90;8.18;;;7.30;60.30;;;;;;4849742;29;115438;-82
2023/12/29 04:10:09;;;;;;;14.73;8.98;;;7.30;60.00;;;;;;4833302;29;114753;-81
2023/12/29 04:12:37;;;;;;;12.57;8.70;;;7.20;60.20;;;;;;4850354;29;114285;-81
2023/12/29 04:15:05;;;;;;;10.93;8.15;;;7.30;60.20;;;;;;4850295;29;114443;-81
2023/12/29 04:17:32;;;;;;;13.57;8.52;;;7.20;60.00;;;;;;4832313;29;115261;-81
2023/12/29 04:20:00;;;;;;;15.10;9.27;;;7.20;59.90;;;;;;4849683;29;114626;-81
2023/12/29 04:22:27;;;;;;;16.58;9.35;;;7.20;60.00;;;;;;4849218;29;114312;-81
2023/12/29 04:24:54;;;;;;;14.50;9.02;;;7.10;60.20;;;;;;4833494;28;114544;-81
2023/12/29 04:27:22;;;;;;;15.32;9.50;;;7.20;60.30;;;;;;4868020;28;115669;-81
2023/12/29 04:29:52;;;;;;;13.05;8.82;;;7.10;60.30;;;;;;4868264;28;114566;-81
2023/12/29 04:32:22;;;;;;;12.18;8.45;;;7.10;60.30;;;;;;4836090;28;114381;-81
2023/12/29 04:34:52;;;;;;;15.07;8.88;;;7.20;60.50;;;;;;4837899;28;114517;-81
2023/12/29 04:37:20;;;;;;;15.95;9.63;;;7.20;60.50;;;;;;4835986;28;115173;-81
2023/12/29 04:39:47;;;;;;;16.25;8.80;;;7.20;60.40;;;;;;4851189;28;114595;-81
2023/12/29 04:42:16;;;;;;;17.17;9.77;;;7.30;60.40;;;;;;4868279;28;114496;-81
2023/12/29 04:44:44;;;;;;;14.60;9.10;;;7.30;60.40;;;;;;4852117;28;114427;-82
2023/12/29 04:47:11;;;;;;;15.18;9.63;;;7.20;60.40;;;;;;4851148;28;115088;-82
2023/12/29 04:49:39;;;;;;;13.80;8.55;;;7.30;60.40;;;;;;4867561;28;114895;-82
2023/12/29 04:52:06;;;;;;;17.52;10.05;;;7.30;60.40;;;;;;4836323;28;114390;-81
2023/12/29 04:54:34;;;;;;;14.88;8.77;;;7.30;60.40;;;;;;4851604;28;114680;-82
2023/12/29 04:57:02;;;;;;;11.40;6.60;;;7.30;60.90;;;;;;4850916;28;115084;-80
2023/12/29 04:59:29;;;;;;;7.75;3.70;;;7.30;61.30;;;;;;4867867;28;114529;-81
2023/12/29 05:01:57;;;;;;;5.78;2.60;;;7.40;62.20;;;;;;4868506;28;114693;-81
2023/12/29 05:04:24;;;;;;;11.77;6.18;;;7.50;62.90;;;;;;4868270;28;114618;-81
2023/12/29 05:06:52;;;;;;;13.75;7.35;;;7.50;62.60;;;;;;4850542;28;115124;-81
2023/12/29 05:09:19;;;;;;;14.52;8.30;;;7.60;62.20;;;;;;4851058;28;114656;-81
2023/12/29 05:11:47;;;;;;;14.95;8.52;;;7.60;61.90;;;;;;4868445;28;114446;-82
2023/12/29 05:14:14;;;;;;;14.50;8.95;;;7.50;61.60;;;;;;4836159;28;114490;-81
2023/12/29 05:16:42;;;;;;;18.20;9.25;;;7.50;61.50;;;;;;4850191;28;115777;-81
2023/12/29 05:19:09;;;;;;;14.27;8.90;;;7.50;61.40;;;;;;4835288;28;114664;-81
2023/12/29 05:21:36;;;;;;;16.55;9.20;;;7.50;61.40;;;;;;4851544;28;114581;-81
2023/12/29 05:24:05;;;;;;;14.18;9.13;;;7.50;61.30;;;;;;4836112;28;114241;-81
2023/12/29 05:26:33;;;;;;;13.68;8.18;;;7.50;61.30;;;;;;4850256;28;115756;-82
2023/12/29 05:29:00;;;;;;;13.52;7.70;;;7.40;61.30;;;;;;4867350;28;114643;-81
2023/12/29 05:31:27;;;;;;;12.57;7.47;;;7.40;61.30;;;;;;4835262;28;114439;-82
2023/12/29 05:33:56;;;;;;;10.95;6.78;;;7.40;61.40;;;;;;4835172;28;114732;-82
2023/12/29 05:36:26;;;;;;;12.20;6.15;;;7.40;61.50;;;;;;4850602;28;115160;-81
2023/12/29 05:38:54;;;;;;;9.20;4.93;;;7.40;61.60;;;;;;4850164;28;114592;-81
2023/12/29 05:41:25;;;;;;;8.48;4.88;;;7.50;61.80;;;;;;4867350;28;114500;-81
2023/12/29 05:43:52;;;;;;;7.85;4.07;;;7.50;62.00;;;;;;4851878;28;114387;-80
2023/12/29 05:46:29;;;;;;;5.47;3.17;;;7.50;62.20;;;;;;4869907;28;115105;-82
2023/12/29 05:48:56;;;;;;;5.75;2.10;;;7.60;62.80;;;;;;4805294;28;118375;-81
2023/12/29 05:51:27;;;;;;;3.75;2.15;;;7.70;62.90;;;;;;4851362;28;114405;-82
2023/12/29 05:53:54;;;;;;;3.05;1.42;;;7.70;63.00;;;;;;4820171;28;114428;-80
2023/12/29 05:56:21;;;;;;;3.47;1.50;;;7.80;62.90;;;;;;4849701;28;115056;-80
2023/12/29 05:58:52;;;;;;;3.28;1.60;;;7.90;62.80;;;;;;4866897;28;115130;-80
2023/12/29 06:01:19;;;;;;;3.45;1.90;;;8.00;62.40;;;;;;4835596;28;114504;-82
2023/12/29 06:03:47;;;;;;;4.03;1.83;;;8.10;62.20;;;;;;4819775;28;114315;-82
2023/12/29 06:06:15;;;;;;;3.80;2.10;;;8.20;61.90;;;;;;4852465;28;115307;-80
2023/12/29 06:08:42;;;;;;;3.72;2.05;;;8.20;61.70;;;;;;4865907;28;115183;-80
2023/12/29 06:11:16;;;;;;;4.07;2.20;;;8.30;61.60;;;;;;4841788;28;114175;-81
2023/12/29 06:13:43;;;;;;;3.93;2.27;;;8.40;61.40;;;;;;4866780;28;114323;-80
2023/12/29 06:16:17;;;;;;;5.22;2.35;;;8.40;61.20;;;;;;4848873;28;115142;-81
2023/12/29 06:18:44;;;;;;;4.10;2.63;;;8.40;61.20;;;;;;4858975;28;114628;-81
2023/12/29 06:21:12;;;;;;;4.40;2.45;;;8.40;61.10;;;;;;4867091;28;114543;-81
2023/12/29 06:23:39;;;;;;;5.53;2.53;;;8.40;61.10;;;;;;4875126;28;114468;-81
2023/12/29 06:26:17;;;;;;;4.78;2.67;;;8.50;61.00;;;;;;4856549;28;115071;-81
2023/12/29 06:28:46;;;;;;;4.70;2.85;;;8.50;60.80;;;;;;4841369;28;117767;-81
2023/12/29 06:31:13;;;;;;;4.80;2.45;;;8.50;60.90;;;;;;4859367;28;114331;-80
2023/12/29 06:33:42;;;;;;;4.22;2.55;;;8.50;60.80;;;;;;4865670;28;114505;-80
2023/12/29 06:36:10;;;;;;;4.95;2.50;;;8.40;60.80;;;;;;4857085;28;115619;-80
2023/12/29 06:38:37;;;;;;;5.22;2.75;;;8.50;60.70;;;;;;4797243;28;117783;-80
2023/12/29 06:41:05;;;;;;;5.38;3.28;;;8.40;60.70;;;;;;4850908;28;114751;-80
2023/12/29 06:43:32;;;;;;;4.50;2.72;;;8.40;60.60;;;;;;4874993;28;114532;-81
2023/12/29 06:46:00;;;;;;;6.75;3.03;;;8.30;60.50;;;;;;4857645;28;115169;-81
2023/12/29 06:48:27;;;;;;;5.50;3.03;;;8.30;60.50;;;;;;4864306;28;115044;-81
2023/12/29 06:50:55;;;;;;;5.15;3.30;;;8.30;60.50;;;;;;4867849;28;114343;-81
2023/12/29 06:53:22;;;;;;;4.40;3.00;;;8.20;60.60;;;;;;4869510;28;114519;-81
2023/12/29 06:55:50;;;;;;;5.38;3.00;;;8.20;60.60;;;;;;4872653;28;115087;-81
2023/12/29 06:58:19;;;;;;;4.45;2.85;;;8.20;60.60;;;;;;4868961;28;114752;-82
2023/12/29 07:00:47;;;;;;;5.47;3.45;;;8.20;60.60;;;;;;4869461;28;114524;-82
2023/12/29 07:03:15;;;;;;;4.70;2.72;;;8.10;60.70;;;;;;4852969;28;114524;-82
2023/12/29 07:05:42;;;;;;;6.93;4.15;;;8.10;60.70;;;;;;4880675;28;115174;-82
2023/12/29 07:08:13;;;;;;;6.50;3.88;;;8.10;60.80;;;;;;4887225;28;115391;-81
2023/12/29 07:10:41;;;;;;;4.80;3.10;;;8.10;60.90;;;;;;4869568;28;114941;-81
2023/12/29 07:13:08;;;;;;;5.90;3.08;;;8.10;60.90;;;;;;4860900;28;114848;-82
2023/12/29 07:15:37;;;;;;;4.55;2.88;;;8.10;60.80;;;;;;4882133;28;115125;-81
2023/12/29 07:18:07;;;;;;;5.95;2.95;;;8.10;60.80;;;;;;4882255;28;114640;-81
2023/12/29 07:20:35;;;;;;;5.10;2.80;;;8.10;60.80;;;;;;4868512;28;114549;-82
2023/12/29 07:23:05;;;;;;;7.07;3.70;;;8.20;60.70;;;;;;4851800;28;114386;-82
2023/12/29 07:25:32;;;;;;;6.28;3.20;;;8.20;60.60;;;;;;4835770;28;115099;-82
2023/12/29 07:28:00;;;;;;;6.32;3.17;;;8.20;60.60;;;;;;4848379;29;117073;-82
2023/12/29 07:30:28;;;;;;;5.15;2.60;;;8.20;60.50;;;;;;4862753;28;114719;-81
2023/12/29 07:32:56;;;;;;;4.45;2.75;;;8.20;60.40;;;;;;4867321;28;114625;-81
2023/12/29 07:35:23;;;;;;;4.80;2.47;;;8.30;60.30;;;;;;4867082;28;115600;-82
2023/12/29 07:37:50;;;;;;;3.95;2.40;;;8.30;60.20;;;;;;4867750;28;115241;-81
2023/12/29 07:40:18;;;;;;;4.30;2.10;;;8.40;60.10;;;;;;4850655;28;114633;-81
2023/12/29 07:42:46;;;;;;;4.30;2.20;;;8.40;60.10;;;;;;4833659;28;114921;-81
2023/12/29 07:45:14;;;;;;;4.07;2.53;;;8.50;59.90;;;;;;4867667;28;118142;-81
2023/12/29 07:47:41;;;;;;;3.30;2.03;;;8.40;59.90;;;;;;4831762;29;115099;-81
2023/12/29 07:50:10;;;;;;;4.93;2.40;;;8.50;59.70;;;;;;4861745;28;114572;-82
2023/12/29 07:52:37;;;;;;;4.00;1.92;;;8.50;59.60;;;;;;4869220;28;114755;-81
2023/12/29 07:55:05;;;;;;;3.50;2.00;;;8.60;59.50;;;;;;4852804;28;115262;-81
2023/12/29 07:57:32;;;;;;;5.22;2.30;;;8.60;59.50;;;;;;4850626;28;115781;-81
2023/12/29 08:00:01;;;;;;;4.93;2.53;;;8.70;59.40;;;;;;4869503;28;114175;-82
2023/12/29 08:02:38;;;;;;;4.50;2.80;;;8.70;59.20;;;;;;4870023;28;114450;-81
2023/12/29 08:17:31;;;;;;;3.50;1.85;;;8.70;59.20;;;;;;4866034;28;114449;-82
2023/12/29 08:20:11;;;;;;;4.68;2.53;;;8.80;59.30;;;;;;4833535;29;114254;-82
2023/12/29 08:22:39;;;;;;;3.60;2.30;;;8.80;59.20;;;;;;4861843;28;115054;-82
2023/12/29 08:25:06;;;;;;;4.75;1.80;;;8.80;59.10;;;;;;4868046;28;115941;-82
2023/12/29 08:27:34;;;;;;;3.58;1.98;;;8.80;58.90;;;;;;4851763;28;114316;-81
2023/12/29 08:30:02;;;;;;;3.55;1.85;;;8.90;58.80;;;;;;4836493;28;114307;-82
2023/12/29 08:32:30;;;;;;;3.13;1.58;;;9.00;58.70;;;;;;4850673;28;115689;-82
2023/12/29 08:34:57;;;;;;;3.40;2.10;;;9.00;58.60;;;;;;4865766;28;114612;-80
2023/12/29 08:37:25;;;;;;;3.80;1.50;;;9.10;58.60;;;;;;4848908;28;114364;-81
2023/12/29 08:39:53;;;;;;;4.15;1.90;;;9.20;58.50;;;;;;4859059;28;114581;-81
2023/12/29 08:42:21;;;;;;;3.10;1.55;;;9.20;58.40;;;;;;4832008;29;116884;-82
2023/12/29 08:44:48;;;;;;;4.18;1.90;;;9.20;58.30;;;;;;4830934;29;115290;-81
2023/12/29 08:47:15;;;;;;;5.55;2.00;;;9.30;58.30;;;;;;4834535;28;114463;-81
2023/12/29 08:49:43;;;;;;;3.72;2.10;;;9.40;58.30;;;;;;4851854;28;114431;-81
2023/12/29 08:52:10;;;;;;;3.40;1.90;;;9.50;58.20;;;;;;4849390;28;115245;-82
2023/12/29 08:54:38;;;;;;;4.20;2.25;;;9.50;58.10;;;;;;4846722;28;115873;-80
2023/12/29 08:57:06;;;;;;;3.45;2.00;;;9.70;57.90;;;;;;4819235;28;114570;-81
2023/12/29 08:59:34;;;;;;;3.60;2.05;;;9.70;57.70;;;;;;4835182;28;114567;-82
2023/12/29 09:02:01;;;;;;;3.63;1.90;;;9.70;57.60;;;;;;4869436;28;115344;-82
2023/12/29 09:04:28;;;;;;;3.67;2.15;;;9.80;57.50;;;;;;4862351;28;114835;-81
2023/12/29 09:06:56;;;;;;;3.58;2.00;;;9.90;57.40;;;;;;4868346;28;114595;-82
2023/12/29 09:09:24;;;;;;;3.63;1.95;;;9.90;57.30;;;;;;4874744;28;114397;-81
2023/12/29 09:11:52;;;;;;;3.72;1.80;;;9.90;57.20;;;;;;4856841;28;115094;-81
2023/12/29 09:14:21;;;;;;;3.20;1.90;;;10.00;57.10;;;;;;4805142;28;116741;-81
2023/12/29 09:16:49;;;;;;;3.42;1.80;;;10.00;56.90;;;;;;4858953;28;114485;-82
2023/12/29 09:19:16;;;;;;;3.40;1.80;;;10.00;56.80;;;;;;4833323;29;114520;-81
2023/12/29 09:21:57;;;;;;;3.45;1.60;;;10.10;56.70;;;;;;4842465;28;116305;-82
2023/12/29 09:24:25;;;;;;;6.72;1.92;;;10.10;56.40;;;;;;4880256;28;114659;-81
2023/12/29 09:26:52;;;;;;;4.40;1.80;;;10.10;56.30;;;;;;4867347;28;114779;-80
2023/12/29 09:29:19;;;;;;;3.90;1.70;;;10.20;56.50;;;;;;4867504;28;114510;-81
2023/12/29 09:31:46;;;;;;;3.35;2.08;;;10.20;56.40;;;;;;4865521;28;115272;-81
2023/12/29 09:34:18;;;;;;;3.90;2.20;;;10.30;56.30;;;;;;4850361;28;115141;-81
2023/12/29 09:36:46;;;;;;;2.92;1.70;;;10.30;56.20;;;;;;4851351;28;114309;-81
2023/12/29 09:39:14;;;;;;;3.47;1.70;;;10.30;56.00;;;;;;4868259;28;114341;-82
2023/12/29 09:41:44;;;;;;;5.25;2.22;;;10.30;56.10;;;;;;4850066;28;115099;-82
2023/12/29 09:44:14;;;;;;;3.58;1.88;;;10.40;55.80;;;;;;4866971;28;114701;-81
2023/12/29 09:46:43;;;;;;;4.35;1.90;;;10.40;56.10;;;;;;4850393;28;114816;-81
2023/12/29 09:49:13;;;;;;;4.10;2.00;;;10.40;56.10;;;;;;4835243;28;114507;-81
2023/12/29 09:51:41;;;;;;;3.60;1.95;;;10.40;56.00;;;;;;4849929;28;115617;-81
2023/12/29 09:54:08;;;;;;;3.15;2.00;;;10.50;55.80;;;;;;4866821;28;114632;-82
2023/12/29 09:56:38;;;;;;;4.10;2.20;;;10.50;55.90;;;;;;4820758;28;114450;-82
2023/12/29 09:59:06;;;;;;;4.03;2.35;;;10.50;55.70;;;;;;4866543;28;114484;-81
2023/12/29 10:01:33;;;;;;;3.70;2.38;;;10.50;55.70;;;;;;4844528;28;115894;-81
2023/12/29 10:04:01;;;;;;;3.83;2.10;;;10.50;55.60;;;;;;4824924;29;115021;-82
2023/12/29 10:06:31;;;;;;;5.32;2.33;;;10.50;55.50;;;;;;4842267;28;114580;-81
2023/12/29 10:08:58;;;;;;;3.83;2.10;;;10.60;55.40;;;;;;4847632;28;115060;-81
2023/12/29 10:11:25;;;;;;;4.53;2.10;;;10.50;55.40;;;;;;4838667;28;115818;-81
2023/12/29 10:13:55;;;;;;;6.05;2.67;;;10.50;55.40;;;;;;4820544;28;117500;-82
2023/12/29 10:16:42;;;;;;;4.63;2.38;;;10.50;55.40;;;;;;4823324;28;114556;-82
2023/12/29 10:19:41;;;;;;;5.78;1.98;;;10.60;55.50;;;;;;4855965;28;114864;-81
2023/12/29 10:22:35;;;;;;;4.85;2.30;;;10.50;55.40;;;;;;4863659;28;116393;-82
2023/12/29 10:25:03;;;;;;;4.45;2.30;;;10.50;55.40;;;;;;4832491;28;114724;-82
2023/12/29 10:27:30;;;;;;;3.92;2.22;;;10.50;55.40;;;;;;4849262;28;114651;-81
2023/12/29 10:29:57;;;;;;;4.80;2.33;;;10.50;55.30;;;;;;4846506;28;115056;-81
2023/12/29 10:32:28;;;;;;;5.85;2.25;;;10.50;55.40;;;;;;4843043;28;115047;-80
2023/12/29 10:35:09;;;;;;;4.30;2.03;;;10.50;55.30;;;;;;4848971;28;115502;-81
2023/12/29 10:37:39;;;;;;;4.65;1.98;;;10.60;55.00;;;;;;4848342;28;114727;-82
2023/12/29 10:40:08;;;;;;;3.58;2.20;;;10.60;55.10;;;;;;4832885;28;114683;-81
2023/12/29 10:42:35;;;;;;;5.00;2.17;;;10.60;54.90;;;;;;4853397;28;115241;-82
2023/12/29 10:45:09;;;;;;;4.65;2.90;;;10.60;55.00;;;;;;4858032;28;115298;-82
2023/12/29 10:47:38;;;;;;;4.55;2.72;;;10.70;54.80;;;;;;4846132;28;114826;-83
2023/12/29 10:50:05;;;;;;;5.97;3.30;;;10.70;54.90;;;;;;4865345;28;114559;-82
2023/12/29 10:52:34;;;;;;;4.68;2.50;;;10.70;54.80;;;;;;4848012;28;115243;-81
2023/12/29 10:55:10;;;;;;;3.45;2.17;;;10.70;54.80;;;;;;4863871;28;114888;-81
2023/12/29 10:57:39;;;;;;;5.03;2.30;;;10.80;54.40;;;;;;4883847;28;114389;-82
2023/12/29 11:00:07;;;;;;;4.47;2.45;;;10.70;54.30;;;;;;4883312;28;114406;-81
2023/12/29 11:02:35;;;;;;;4.57;2.22;;;10.80;54.20;;;;;;4852301;28;115652;-82
2023/12/29 11:05:04;;;;;;;3.70;2.10;;;10.80;54.10;;;;;;4848110;28;115367;-82
2023/12/29 11:07:41;;;;;;;5.90;2.67;;;10.80;54.20;;;;;;4864835;28;114525;-81
2023/12/29 11:10:09;;;;;;;3.67;2.15;;;10.80;54.00;;;;;;4865317;28;114521;-83
2023/12/29 11:12:37;;;;;;;3.75;2.17;;;10.80;54.00;;;;;;4845195;28;115888;-82
2023/12/29 11:15:06;;;;;;;4.07;2.35;;;10.80;54.00;;;;;;4848037;28;114876;-82
2023/12/29 11:17:34;;;;;;;4.55;2.28;;;10.80;53.80;;;;;;4848520;28;114773;-81
2023/12/29 11:20:04;;;;;;;3.85;2.25;;;10.80;53.80;;;;;;4871651;28;114528;-82
2023/12/29 11:22:32;;;;;;;3.40;2.15;;;10.80;53.80;;;;;;4871250;28;116442;-82
2023/12/29 11:25:07;;;;;;;5.50;2.75;;;10.80;53.80;;;;;;4832297;28;115373;-83
2023/12/29 11:27:35;;;;;;;4.53;3.03;;;10.70;53.70;;;;;;4848917;28;114719;-82
2023/12/29 11:30:04;;;;;;;5.53;2.80;;;10.70;53.90;;;;;;4848863;28;114842;-82
2023/12/29 11:32:46;;;;;;;4.75;2.55;;;10.70;53.80;;;;;;4845769;28;115201;-81
2023/12/29 11:35:28;;;;;;;5.63;2.90;;;10.70;53.90;;;;;;4843671;28;117422;-80
2023/12/29 11:38:52;;;;;;;5.13;2.88;;;10.70;53.50;;;;;;4860176;28;115088;-80
2023/12/29 11:41:32;;;;;;;5.40;2.85;;;10.70;53.70;;;;;;4868931;28;114952;-81
2023/12/29 11:44:00;;;;;;;4.25;2.60;;;10.60;53.90;;;;;;4852985;28;115210;-81
2023/12/29 11:46:43;;;;;;;3.95;2.38;;;10.60;53.90;;;;;;4867735;28;115464;-81
2023/12/29 11:49:11;;;;;;;4.65;2.50;;;10.60;53.50;;;;;;4868080;28;114742;-81
2023/12/29 11:51:43;;;;;;;4.22;2.70;;;10.50;53.60;;;;;;4850676;28;114651;-81
2023/12/29 11:54:24;;;;;;;4.15;2.80;;;10.60;53.70;;;;;;4841305;29;115090;-83
2023/12/29 11:56:53;;;;;;;4.82;2.75;;;10.60;53.60;;;;;;4835483;28;114661;-81
2023/12/29 11:59:24;;;;;;;5.07;2.83;;;10.50;53.40;;;;;;4827973;28;115051;-82
2023/12/29 12:01:54;;;;;;;5.55;3.03;;;10.60;53.10;;;;;;4866661;28;114872;-82
2023/12/29 12:04:41;;;;;;;4.40;2.80;;;10.60;53.30;;;;;;4867128;28;115136;-81
2023/12/29 12:07:15;;;;;;;4.57;2.90;;;10.60;52.90;;;;;;4850583;28;114989;-82
2023/12/29 12:09:43;;;;;;;3.70;2.20;;;10.50;52.90;;;;;;4867013;28;114547;-81
2023/12/29 12:12:11;;;;;;;5.03;2.83;;;10.50;52.80;;;;;;4868629;28;114799;-81
2023/12/29 12:14:54;;;;;;;4.13;2.47;;;10.50;52.40;;;;;;4866752;28;115072;-80
2023/12/29 12:17:47;;;;;;;5.75;2.90;;;10.50;52.00;;;;;;4860847;28;114992;-82
2023/12/29 12:20:15;;;;;;;6.05;2.92;;;10.50;52.00;;;;;;4801573;28;114976;-82
2023/12/29 12:22:42;;;;;;;3.55;2.42;;;10.50;52.30;;;;;;4881314;28;114451;-81
2023/12/29 12:25:12;;;;;;;4.38;2.30;;;10.50;52.00;;;;;;4838411;28;117002;-82
2023/12/29 12:27:39;;;;;;;5.15;3.00;;;10.50;52.00;;;;;;4868838;28;115087;-82
2023/12/29 12:30:09;;;;;;;4.03;2.72;;;10.60;52.10;;;;;;4887436;28;114612;-82
2023/12/29 12:32:37;;;;;;;3.78;2.38;;;10.60;51.90;;;;;;4876233;28;114572;-81
2023/12/29 12:35:05;;;;;;;4.13;2.47;;;10.60;51.50;;;;;;4846232;28;116854;-82
2023/12/29 12:37:32;;;;;;;5.18;2.90;;;10.50;51.60;;;;;;4834175;28;115706;-82
2023/12/29 12:40:00;;;;;;;4.10;2.40;;;10.50;51.50;;;;;;4849130;28;114563;-82
2023/12/29 12:42:27;;;;;;;6.32;3.05;;;10.50;51.70;;;;;;4869997;28;114654;-83
2023/12/29 12:45:02;;;;;;;4.30;2.70;;;10.50;51.60;;;;;;4854568;28;115656;-81
2023/12/29 12:47:39;;;;;;;4.55;2.90;;;10.60;51.60;;;;;;4845441;28;114786;-82
2023/12/29 12:50:09;;;;;;;4.43;2.80;;;10.60;51.50;;;;;;4853145;28;114874;-81
2023/12/29 12:52:38;;;;;;;5.78;3.25;;;10.50;51.40;;;;;;4861184;28;114743;-81
2023/12/29 12:55:09;;;;;;;4.70;3.17;;;10.60;51.70;;;;;;4885539;28;115011;-83
2023/12/29 12:57:37;;;;;;;4.95;3.03;;;10.60;51.60;;;;;;4852540;28;114985;-82
2023/12/29 13:00:05;;;;;;;4.13;2.70;;;10.50;51.60;;;;;;4857388;28;114446;-82
2023/12/29 13:02:33;;;;;;;5.78;3.28;;;10.50;51.70;;;;;;4824266;28;114824;-82